Latest Coastal Weather Observations for Willis Island

IDQ60701

Issued at 2:12 pm EST Monday 27 April 2015 (issued every 10 minutes, with the page automatically refreshed every 10 minutes)

About coastal observations | Map of coastal stations | Coastal observations for QLD | Marine services | Other Formats
Station Details ID: 200283 Name: WILLIS ISLAND Lat: -16.29 Lon: 149.97 Height: 9.29 m
Data from the previous 72 hours. | See also: Recent months at Willis Island
Date/Time
EST
Temp

°C
Wind Pressure Rain
since 9am
mm
Weather Cloud Vis
km
Sea
Height
m
Swell
Dir
 
Speed
knots
Gust
knots
hPa Trend Height
m
Period
s
Dir
27/02:00pm 26.5 SSE 20 24 1012.9 - 0.0 - - - - - - -
27/01:30pm 26.9 SSE 21 24 1013.0 - 0.0 - - - - - - -
27/01:00pm 27.1 SSE 20 23 1013.2 - 0.0 - - - - - - -
27/12:30pm 26.8 SSE 20 24 1013.4 - 0.0 - - - - - - -
27/12:00pm 26.9 SSE 20 24 1013.6 F 0.0 Fine Partly cloudy 30 1 0.8 9 SE
27/11:30am 27.2 SSE 20 25 1013.9 - 0.0 - - - - - - -
27/11:00am 27.5 SSE 20 23 1014.3 - 0.0 - - - - - - -
27/10:30am 27.3 SSE 19 22 1014.9 - 0.0 - - - - - - -
27/10:00am 26.8 SSE 19 22 1015.1 - 0.0 - - - - - - -
27/09:30am 26.9 SSE 19 22 1015.1 - 0.0 - - - - - - -
27/09:00am 26.8 SSE 19 22 1015.0 R 1.0 Fine Mostly clear 30 1 1.0 9 SE
27/08:30am 26.1 SSE 19 22 1014.8 - - - - - - - - -
27/08:00am 26.3 SSE 19 22 1014.5 - - - - - - - - -
27/07:30am 25.6 SSE 21 24 1014.0 - - - - - - - - -
27/07:00am 25.5 SSE 18 22 1013.7 - - - - - - - - -
27/06:30am 25.8 S 16 19 1013.5 - - - - - - - - -
27/06:00am 25.7 SE 15 17 1013.1 - - - - - - - - -
27/05:30am 25.6 SE 13 17 1012.9 - - - - - - - - -
27/05:00am 25.8 SE 14 17 1012.8 - - - - - - - - -
27/04:30am 25.7 SE 14 17 1012.8 - - - - - - - - -
27/04:00am 25.6 SE 14 16 1012.9 - - - - - - - - -
27/03:30am 25.6 SE 13 16 1012.7 - - - - - - - - -
27/03:00am 25.7 SE 14 16 1012.8 - - - - - - - - -
27/02:30am 25.7 SE 15 17 1013.0 - - - - - - - - -
27/02:00am 25.7 SE 14 16 1013.1 - - - - - - - - -
27/01:30am 25.9 SE 14 16 1013.2 - - - - - - - - -
27/01:00am 26.0 SE 15 17 1013.2 - - - - - - - - -
27/12:30am 25.9 SE 14 16 1013.6 - - - - - - - - -
27/12:00am 25.9 SE 15 17 1014.0 - - - - - - - - -
 
Date/Time
EST
Temp

°C
Wind Pressure Rain
since 9am
mm
Weather Cloud Vis
km
Sea
Height
m
Swell
Dir
 
Speed
knots
Gust
knots
hPa Trend Height
m
Period
s
Dir
26/11:30pm 26.0 SSE 16 18 1014.2 - - - - - - - - -
26/11:00pm 26.0 SSE 16 18 1014.4 - - - - - - - - -
26/10:30pm 26.2 SSE 16 20 1014.5 - - - - - - - - -
26/10:00pm 26.0 SSE 16 19 1014.4 - - - - - - - - -
26/09:30pm 26.0 SSE 17 20 1014.4 - - - - - - - - -
26/09:00pm 26.0 SSE 16 20 1014.2 - - - - - - - - -
26/08:30pm 25.9 SSE 15 17 1013.9 - - - - - - - - -
26/08:00pm 26.0 SSE 17 20 1013.7 - - - - - - - - -
26/07:30pm 26.0 SSE 15 19 1013.3 - - - - - - - - -
26/07:00pm 25.9 SSE 17 20 1012.8 - - - - - - - - -
26/06:30pm - - 15 18 - - - - - - - - - -
26/06:00pm 25.8 S 18 18 - R - Fine Partly cloudy 40 1 0.5 7 E
26/05:30pm - - 15 18 - - - - - - - - - -
26/05:00pm - - 15 18 - - - - - - - - - -
26/04:30pm - - 15 18 - - - - - - - - - -
26/04:00pm 26.6 S 15 18 1011.5 - - - - - - - - -
26/03:30pm 26.7 S 16 18 1011.3 - - - - - - - - -
26/03:00pm 27.0 S 16 19 1011.3 R 0.0 Fine Mostly clear 40 1 0.5 9 SE
26/02:30pm 27.2 S 16 19 1011.2 - 0.0 - - - - - - -
26/02:00pm 27.5 S 15 19 1011.4 - 0.0 - - - - - - -
26/01:30pm 27.4 S 14 17 1011.5 - 0.0 - - - - - - -
26/01:00pm 27.5 S 14 16 1011.7 - 0.0 - - - - - - -
26/12:30pm 27.4 S 14 17 1012.0 - 0.0 - - - - - - -
26/12:00pm 27.4 S 14 17 1012.3 R 0.0 Fine Partly cloudy 40 <0.5 0.5 7 SE
26/11:30am 27.2 S 13 16 1012.6 - 0.0 - - - - - - -
26/11:00am 27.6 S 12 14 1013.1 - 0.0 - - - - - - -
26/10:30am 27.4 S 13 15 1013.3 - 0.0 - - - - - - -
26/10:00am 27.1 S 12 15 1013.5 - 0.0 - - - - - - -
26/09:30am 26.8 S 13 16 1013.6 - 0.0 - - - - - - -
26/09:00am 26.6 S 12 16 1013.4 R 0.0 Fine Mostly cloudy 40 <0.5 0.5 10 SE
26/08:30am 26.5 SSE 10 15 1013.2 - 0.0 - - - - - - -
26/08:00am 26.0 S 11 13 1013.0 - 0.0 - - - - - - -
26/07:30am 25.6 SSE 9 11 1012.8 - 0.0 - - - - - - -
26/07:00am 25.5 SSE 10 12 1012.6 - 0.0 - - - - - - -
26/06:30am 25.0 SE 9 11 1012.1 - 0.0 - - - - - - -
26/06:00am 24.9 SE 11 13 1011.7 - 0.0 - - - - - - -
26/05:30am 25.0 SSE 10 12 1011.3 - 0.0 - - - - - - -
26/05:00am 24.6 SSE 9 10 1011.3 - 0.0 - - - - - - -
26/04:30am 24.6 SE 8 11 1011.1 - 0.0 - - - - - - -
26/04:00am 24.8 SE 11 13 1010.9 - 0.0 - - - - - - -
26/03:30am 25.2 SE 9 11 1010.9 - 0.0 - - - - - - -
26/03:00am 25.0 SSE 9 12 1010.9 - 0.0 - - - - - - -
26/02:30am 25.1 SSE 10 11 1010.9 - 0.0 - - - - - - -
26/02:00am 25.3 SE 9 12 1011.0 - 0.0 - - - - - - -
26/01:30am 25.0 SE 11 14 1011.2 - 0.0 - - - - - - -
26/01:00am 25.2 S 11 13 1011.5 - 0.0 - - - - - - -
26/12:30am 25.5 S 12 14 1011.7 - 0.0 - - - - - - -
26/12:00am 25.1 SSE 11 14 1011.9 - 0.0 - - - - - - -
 
Date/Time
EST
Temp

°C
Wind Pressure Rain
since 9am
mm
Weather Cloud Vis
km
Sea
Height
m
Swell
Dir
 
Speed
knots
Gust
knots
hPa Trend Height
m
Period
s
Dir
25/11:30pm 25.2 SSE 12 15 1012.0 - 0.0 - - - - - - -
25/11:00pm 25.4 SSE 12 16 1012.2 - 0.0 - - - - - - -
25/10:30pm 25.4 S 14 17 1012.4 - 0.0 - - - - - - -
25/10:00pm 25.8 S 13 16 1012.6 - 0.0 - - - - - - -
25/09:30pm 25.7 S 13 16 1012.7 - 0.0 - - - - - - -
25/09:00pm 25.5 SSE 13 15 1012.7 - 0.0 - - - - - - -
25/08:30pm 25.5 S 13 16 1012.4 - 0.0 - - - - - - -
25/08:00pm 25.5 S 13 16 1012.1 - 0.0 - - - - - - -
25/07:30pm 25.7 S 13 15 1011.6 - 0.0 - - - - - - -
25/07:00pm 25.8 S 11 13 1011.3 - 0.0 - - - - - - -
25/06:30pm 25.7 S 11 14 1011.0 - 0.0 - - - - - - -
25/06:00pm 25.3 S 10 12 1010.6 R 0.0 Fine Partly cloudy 50 <0.5 0.5 6 E
25/05:30pm 25.5 SSE 9 11 1010.3 - 0.0 - - - - - - -
25/05:00pm 26.1 S 8 10 1010.2 - 0.0 - - - - - - -
25/04:30pm 26.2 SSE 9 11 1009.9 - 0.0 - - - - - - -
25/04:00pm 26.0 SSE 8 11 1009.7 - 0.0 - - - - - - -
25/03:30pm 27.7 S 8 10 1009.5 - 0.0 - - - - - - -
25/03:00pm 27.6 S 8 11 1009.4 R 0.0 Fine Partly cloudy 50 <0.5 0.5 5 SE
25/02:30pm 27.3 S 9 10 1009.4 - 0.0 - - - - - - -
25/02:00pm 27.6 SSE 9 12 1009.5 - 0.0 - - - - - - -
25/01:30pm 27.6 SSE 9 11 1009.7 - 0.0 - - - - - - -
25/01:00pm 27.4 SSE 10 12 1009.9 - 0.0 - - - - - - -
25/12:30pm 27.6 SSE 9 11 1010.1 - 0.0 - - - - - - -
25/12:00pm 27.3 SSE 10 12 1010.3 F 0.0 Fine Mostly clear 40 <0.5 0.6 9 SE
25/11:30am 27.5 SSE 9 12 1010.7 - 0.0 - - - - - - -
25/11:00am 27.7 SSE 9 11 1011.1 - 0.0 - - - - - - -
25/10:30am 27.5 SSE 10 14 1011.5 - 0.0 - - - - - - -
25/10:00am 27.3 SE 9 11 1011.8 - 0.0 - - - - - - -
25/09:30am 26.9 SSE 9 12 1011.7 - 0.0 - - - - - - -
25/09:00am 26.3 S 10 11 1011.7 R 0.0 Fine Mostly clear 40 <0.5 0.7 9 SE
25/08:30am 26.0 SSE 9 11 1011.4 - 0.0 - - - - - - -
25/08:00am 25.6 SSE 10 12 1011.0 - 0.0 - - - - - - -
25/07:30am 25.1 SSE 10 12 1010.9 - 0.0 - - - - - - -
25/07:00am 24.7 SSE 11 14 1010.8 - 0.0 - - - - - - -
25/06:30am 24.4 SSE 11 14 1010.4 - 0.0 - - - - - - -
25/06:00am 24.1 SSE 11 16 1010.0 - 0.0 - - - - - - -
25/05:30am 24.2 S 12 15 1009.8 - 0.0 - - - - - - -
25/05:00am 24.2 SSE 11 13 1009.7 - 0.0 - - - - - - -
25/04:30am 24.4 S 11 13 1009.6 - 0.0 - - - - - - -
25/04:00am 24.2 SSE 10 12 1009.6 - 0.0 - - - - - - -
25/03:30am 24.2 SSE 11 13 1009.5 - 0.0 - - - - - - -
25/03:00am 24.2 SSE 11 14 1009.6 - 0.0 - - - - - - -
25/02:30am 24.4 S 11 14 1009.7 - 0.0 - - - - - - -
25/02:00am 24.5 S 12 15 1009.6 - 0.0 - - - - - - -
25/01:30am 24.4 S 11 15 1009.7 - 0.0 - - - - - - -
25/01:00am 24.6 SSE 11 14 1009.8 - 0.0 - - - - - - -
25/12:30am 24.7 SSE 11 13 1010.2 - 0.0 - - - - - - -
25/12:00am 24.8 S 13 17 1010.6 - 0.0 - - - - - - -
 
Date/Time
EST
Temp

°C
Wind Pressure Rain
since 9am
mm
Weather Cloud Vis
km
Sea
Height
m
Swell
Dir
 
Speed
knots
Gust
knots
hPa Trend Height
m
Period
s
Dir
24/11:30pm 24.9 S 13 16 1010.6 - 0.0 - - - - - - -
24/11:00pm 24.9 S 12 14 1010.9 - 0.0 - - - - - - -
24/10:30pm 25.0 S 11 14 1011.3 - 0.0 - - - - - - -
24/10:00pm 24.7 S 9 13 1011.4 - 0.0 - - - - - - -
24/09:30pm 25.0 S 11 14 1011.4 - 0.0 - - - - - - -
24/09:00pm 25.1 SSE 10 13 1011.4 - 0.0 - - - - - - -
24/08:30pm 24.7 S 11 13 1011.1 - 0.0 - - - - - - -
24/08:00pm 25.1 S 11 13 1010.8 - 0.0 - - - - - - -
24/07:30pm 25.2 S 11 14 1010.3 - 0.0 - - - - - - -
24/07:00pm 25.1 S 10 13 1009.9 - 0.0 - - - - - - -
24/06:30pm 25.3 S 9 11 1009.7 - 0.0 - - - - - - -
24/06:00pm 25.3 S 10 12 1009.4 F 0.0 Fine Mostly clear 40 <0.5 0.8 5 SE
24/05:30pm 25.5 S 11 13 1009.2 - 0.0 - - - - - - -
24/05:00pm 25.8 S 12 14 1009.0 - 0.0 - - - - - - -
24/04:30pm 26.3 S 11 14 1008.7 - 0.0 - - - - - - -
24/04:00pm 26.3 SSW 11 13 1008.5 - 0.0 - - - - - - -
24/03:30pm 27.1 SSW 9 12 1008.5 - 0.0 - - - - - - -
24/03:00pm 27.2 SSW 10 12 1008.5 R 0.0 Fine Partly cloudy 40 <0.5 1.0 5 SE
24/02:30pm 27.2 SSW 10 12 1008.4 - 0.0 - - - - - - -

Other Formats:

Comma delimited format used in spreadsheet applications
http://www.bom.gov.au/fwo/IDQ60701/IDQ60701.94299.axf

JavaScript Object Notation format (JSON) in row-major order
http://www.bom.gov.au/fwo/IDQ60701/IDQ60701.94299.json